Star, Texas
Current Conditions -  °F | °C
As of 12:35 AM on Saturday 20 Dec 2014 (Local Time) from KMNZ Reporting Station
Overcast Overcast  
Wind Chill: 44°   Ceiling: 1500
Heat Index: 46°   Visibility: 7mi
Dew Point: 46°   Wind: 5mph
Humidity: 100%   Direction: 10°N
Pressure: 30.2"   Gusts: NA
Location:  31.47°N, 98.32°W
Report Text: KMNZ 200635Z AUTO 01004KT 7SM OVC015 08/08 A3020 RMK AO2 T00780078
Loading
Personal Weather Stations






























Interactive Weather Map New forecast layout! Learn more

10-Day Weather Forecast

Advertisements
Track Severe Weather on mobile